sensor_id;sensor_type;location;lat;lon;timestamp;temperature;humidity
2002;DHT22;1003;48.002;7.788;2022-10-16T00:01:17;14.30;99.90
2002;DHT22;1003;48.002;7.788;2022-10-16T00:03:48;14.30;99.90
2002;DHT22;1003;48.002;7.788;2022-10-16T00:06:17;14.20;99.90
2002;DHT22;1003;48.002;7.788;2022-10-16T00:08:47;14.30;99.90
2002;DHT22;1003;48.002;7.788;2022-10-16T00:11:17;14.30;99.90
2002;DHT22;1003;48.002;7.788;2022-10-16T00:13:47;14.30;99.90
2002;DHT22;1003;48.002;7.788;2022-10-16T00:16:15;14.30;99.90
2002;DHT22;1003;48.002;7.788;2022-10-16T00:18:43;14.30;99.90
2002;DHT22;1003;48.002;7.788;2022-10-16T00:21:14;14.40;99.90
2002;DHT22;1003;48.002;7.788;2022-10-16T00:23:43;14.30;99.90
2002;DHT22;1003;48.002;7.788;2022-10-16T00:26:15;14.30;99.90
2002;DHT22;1003;48.002;7.788;2022-10-16T00:28:45;14.20;99.90
2002;DHT22;1003;48.002;7.788;2022-10-16T00:31:13;14.20;99.90
2002;DHT22;1003;48.002;7.788;2022-10-16T00:33:41;14.20;99.90
2002;DHT22;1003;48.002;7.788;2022-10-16T00:36:13;14.20;99.90
2002;DHT22;1003;48.002;7.788;2022-10-16T00:38:42;14.20;99.90
2002;DHT22;1003;48.002;7.788;2022-10-16T00:41:11;14.30;99.90
2002;DHT22;1003;48.002;7.788;2022-10-16T00:43:43;14.30;99.90
2002;DHT22;1003;48.002;7.788;2022-10-16T00:46:15;14.40;99.90
2002;DHT22;1003;48.002;7.788;2022-10-16T00:48:48;14.40;99.90
2002;DHT22;1003;48.002;7.788;2022-10-16T00:51:24;14.40;99.90
2002;DHT22;1003;48.002;7.788;2022-10-16T00:53:55;14.40;99.90
2002;DHT22;1003;48.002;7.788;2022-10-16T00:56:23;14.40;99.90
2002;DHT22;1003;48.002;7.788;2022-10-16T00:58:50;14.40;99.90
2002;DHT22;1003;48.002;7.788;2022-10-16T01:01:17;14.40;99.90
2002;DHT22;1003;48.002;7.788;2022-10-16T01:03:44;14.30;99.90
2002;DHT22;1003;48.002;7.788;2022-10-16T01:06:23;14.30;99.90
2002;DHT22;1003;48.002;7.788;2022-10-16T01:09:07;14.20;99.90
2002;DHT22;1003;48.002;7.788;2022-10-16T01:11:46;14.20;99.90
2002;DHT22;1003;48.002;7.788;2022-10-16T01:14:26;14.20;99.90
2002;DHT22;1003;48.002;7.788;2022-10-16T01:17:01;14.10;99.90
2002;DHT22;1003;48.002;7.788;2022-10-16T01:19:50;14.10;99.90
2002;DHT22;1003;48.002;7.788;2022-10-16T01:22:39;14.10;99.90
2002;DHT22;1003;48.002;7.788;2022-10-16T01:25:23;14.00;99.90
2002;DHT22;1003;48.002;7.788;2022-10-16T01:27:59;14.00;99.90
2002;DHT22;1003;48.002;7.788;2022-10-16T01:30:31;14.00;99.90
2002;DHT22;1003;48.002;7.788;2022-10-16T01:33:03;13.90;99.90
2002;DHT22;1003;48.002;7.788;2022-10-16T01:35:38;13.90;99.90
2002;DHT22;1003;48.002;7.788;2022-10-16T01:38:14;13.80;99.90
2002;DHT22;1003;48.002;7.788;2022-10-16T01:40:49;13.80;99.90
2002;DHT22;1003;48.002;7.788;2022-10-16T01:43:24;13.80;99.90
2002;DHT22;1003;48.002;7.788;2022-10-16T01:45:55;13.90;99.90
2002;DHT22;1003;48.002;7.788;2022-10-16T01:48:24;13.90;99.90
2002;DHT22;1003;48.002;7.788;2022-10-16T01:50:55;13.90;99.90
2002;DHT22;1003;48.002;7.788;2022-10-16T01:53:26;13.90;99.90
2002;DHT22;1003;48.002;7.788;2022-10-16T01:55:55;13.90;99.90
2002;DHT22;1003;48.002;7.788;2022-10-16T01:58:28;13.90;99.90
2002;DHT22;1003;48.002;7.788;2022-10-16T02:01:01;14.00;99.90
2002;DHT22;1003;48.002;7.788;2022-10-16T02:03:31;14.00;99.90
2002;DHT22;1003;48.002;7.788;2022-10-16T02:06:00;14.00;99.90
2002;DHT22;1003;48.002;7.788;2022-10-16T02:08:28;14.00;99.90
2002;DHT22;1003;48.002;7.788;2022-10-16T02:10:57;14.00;99.90
2002;DHT22;1003;48.002;7.788;2022-10-16T02:13:32;14.00;99.90
2002;DHT22;1003;48.002;7.788;2022-10-16T02:16:04;14.10;99.90
2002;DHT22;1003;48.002;7.788;2022-10-16T02:18:32;14.00;99.90
2002;DHT22;1003;48.002;7.788;2022-10-16T02:21:01;14.00;99.90
2002;DHT22;1003;48.002;7.788;2022-10-16T02:23:54;14.00;99.90
2002;DHT22;1003;48.002;7.788;2022-10-16T02:26:29;14.10;99.90
2002;DHT22;1003;48.002;7.788;2022-10-16T02:29:08;14.10;99.90
2002;DHT22;1003;48.002;7.788;2022-10-16T02:31:41;13.90;99.90
2002;DHT22;1003;48.002;7.788;2022-10-16T02:34:13;13.80;99.90
2002;DHT22;1003;48.002;7.788;2022-10-16T02:36:43;13.70;99.90
2002;DHT22;1003;48.002;7.788;2022-10-16T02:39:13;13.70;99.90
2002;DHT22;1003;48.002;7.788;2022-10-16T02:41:41;13.70;99.90
2002;DHT22;1003;48.002;7.788;2022-10-16T02:44:10;13.60;99.90
2002;DHT22;1003;48.002;7.788;2022-10-16T02:46:37;13.60;99.90
2002;DHT22;1003;48.002;7.788;2022-10-16T02:49:05;13.70;99.90
2002;DHT22;1003;48.002;7.788;2022-10-16T02:51:32;13.70;99.90
2002;DHT22;1003;48.002;7.788;2022-10-16T02:53:59;13.70;99.90
2002;DHT22;1003;48.002;7.788;2022-10-16T02:56:26;13.70;99.90
2002;DHT22;1003;48.002;7.788;2022-10-16T02:58:53;13.80;99.90
2002;DHT22;1003;48.002;7.788;2022-10-16T03:01:21;13.80;99.90
2002;DHT22;1003;48.002;7.788;2022-10-16T03:03:49;13.70;99.90
2002;DHT22;1003;48.002;7.788;2022-10-16T03:06:16;13.70;99.90
2002;DHT22;1003;48.002;7.788;2022-10-16T03:08:43;13.70;99.90
2002;DHT22;1003;48.002;7.788;2022-10-16T03:11:10;13.70;99.90
2002;DHT22;1003;48.002;7.788;2022-10-16T03:13:37;13.70;99.90
2002;DHT22;1003;48.002;7.788;2022-10-16T03:16:04;13.70;99.90
2002;DHT22;1003;48.002;7.788;2022-10-16T03:18:32;13.70;99.90
2002;DHT22;1003;48.002;7.788;2022-10-16T03:20:59;13.70;99.90
2002;DHT22;1003;48.002;7.788;2022-10-16T03:23:26;13.70;99.90
2002;DHT22;1003;48.002;7.788;2022-10-16T03:25:54;13.70;99.90
2002;DHT22;1003;48.002;7.788;2022-10-16T03:28:21;13.80;99.90
2002;DHT22;1003;48.002;7.788;2022-10-16T03:30:48;13.80;99.90
2002;DHT22;1003;48.002;7.788;2022-10-16T03:33:15;13.90;99.90
2002;DHT22;1003;48.002;7.788;2022-10-16T03:35:50;13.90;99.90
2002;DHT22;1003;48.002;7.788;2022-10-16T03:38:19;13.90;99.90
2002;DHT22;1003;48.002;7.788;2022-10-16T03:40:47;13.90;99.90
2002;DHT22;1003;48.002;7.788;2022-10-16T03:43:14;14.00;99.90
2002;DHT22;1003;48.002;7.788;2022-10-16T03:45:42;14.00;99.90
2002;DHT22;1003;48.002;7.788;2022-10-16T03:48:09;14.00;99.90
2002;DHT22;1003;48.002;7.788;2022-10-16T03:50:36;14.00;99.90
2002;DHT22;1003;48.002;7.788;2022-10-16T03:53:05;14.00;99.90
2002;DHT22;1003;48.002;7.788;2022-10-16T03:55:32;13.90;99.90
2002;DHT22;1003;48.002;7.788;2022-10-16T03:57:59;13.90;99.90
2002;DHT22;1003;48.002;7.788;2022-10-16T04:00:26;13.90;99.90
2002;DHT22;1003;48.002;7.788;2022-10-16T04:02:54;14.00;99.90
2002;DHT22;1003;48.002;7.788;2022-10-16T04:05:21;13.90;99.90
2002;DHT22;1003;48.002;7.788;2022-10-16T04:07:47;13.90;99.90
2002;DHT22;1003;48.002;7.788;2022-10-16T04:10:16;13.80;99.90
2002;DHT22;1003;48.002;7.788;2022-10-16T04:12:43;13.90;99.90
2002;DHT22;1003;48.002;7.788;2022-10-16T04:15:10;13.90;99.90
2002;DHT22;1003;48.002;7.788;2022-10-16T04:17:37;13.90;99.90
2002;DHT22;1003;48.002;7.788;2022-10-16T04:20:05;13.90;99.90
2002;DHT22;1003;48.002;7.788;2022-10-16T04:22:33;13.90;99.90
2002;DHT22;1003;48.002;7.788;2022-10-16T04:25:00;13.90;99.90
2002;DHT22;1003;48.002;7.788;2022-10-16T04:27:28;13.90;99.90
2002;DHT22;1003;48.002;7.788;2022-10-16T04:29:56;13.90;99.90
2002;DHT22;1003;48.002;7.788;2022-10-16T04:32:24;13.90;99.90
2002;DHT22;1003;48.002;7.788;2022-10-16T04:34:51;14.00;99.90
2002;DHT22;1003;48.002;7.788;2022-10-16T04:37:18;14.10;99.90
2002;DHT22;1003;48.002;7.788;2022-10-16T04:39:49;14.20;99.90
2002;DHT22;1003;48.002;7.788;2022-10-16T04:42:16;14.20;99.90
2002;DHT22;1003;48.002;7.788;2022-10-16T04:44:44;14.20;99.90
2002;DHT22;1003;48.002;7.788;2022-10-16T04:47:12;14.30;99.90
2002;DHT22;1003;48.002;7.788;2022-10-16T04:49:39;14.20;99.90
2002;DHT22;1003;48.002;7.788;2022-10-16T04:52:07;14.20;99.90
2002;DHT22;1003;48.002;7.788;2022-10-16T04:54:35;14.20;99.90
2002;DHT22;1003;48.002;7.788;2022-10-16T04:57:02;14.30;99.90
2002;DHT22;1003;48.002;7.788;2022-10-16T04:59:30;14.40;99.90
2002;DHT22;1003;48.002;7.788;2022-10-16T05:01:59;14.50;99.90
2002;DHT22;1003;48.002;7.788;2022-10-16T05:04:25;14.70;99.90
2002;DHT22;1003;48.002;7.788;2022-10-16T05:06:52;14.70;99.90
2002;DHT22;1003;48.002;7.788;2022-10-16T05:09:20;14.70;99.90
2002;DHT22;1003;48.002;7.788;2022-10-16T05:11:47;14.60;99.90
2002;DHT22;1003;48.002;7.788;2022-10-16T05:14:14;14.50;99.90
2002;DHT22;1003;48.002;7.788;2022-10-16T05:16:41;14.40;99.90
2002;DHT22;1003;48.002;7.788;2022-10-16T05:19:09;14.40;99.90
2002;DHT22;1003;48.002;7.788;2022-10-16T05:21:36;14.40;99.90
2002;DHT22;1003;48.002;7.788;2022-10-16T05:24:04;14.30;99.90
2002;DHT22;1003;48.002;7.788;2022-10-16T05:26:31;14.20;99.90
2002;DHT22;1003;48.002;7.788;2022-10-16T05:28:58;14.20;99.90
2002;DHT22;1003;48.002;7.788;2022-10-16T05:31:25;14.10;99.90
2002;DHT22;1003;48.002;7.788;2022-10-16T05:33:52;14.10;99.90
2002;DHT22;1003;48.002;7.788;2022-10-16T05:36:25;14.10;99.90
2002;DHT22;1003;48.002;7.788;2022-10-16T05:38:52;14.10;99.90
2002;DHT22;1003;48.002;7.788;2022-10-16T05:41:20;14.10;99.90
2002;DHT22;1003;48.002;7.788;2022-10-16T05:43:49;14.10;99.90
2002;DHT22;1003;48.002;7.788;2022-10-16T05:46:16;14.10;99.90
2002;DHT22;1003;48.002;7.788;2022-10-16T05:48:43;14.10;99.90
2002;DHT22;1003;48.002;7.788;2022-10-16T05:51:11;14.20;99.90
2002;DHT22;1003;48.002;7.788;2022-10-16T05:53:41;14.30;99.90
2002;DHT22;1003;48.002;7.788;2022-10-16T05:56:10;14.30;99.90
2002;DHT22;1003;48.002;7.788;2022-10-16T05:58:38;14.40;99.90
2002;DHT22;1003;48.002;7.788;2022-10-16T06:01:09;14.40;99.90
2002;DHT22;1003;48.002;7.788;2022-10-16T06:03:38;14.40;99.90
2002;DHT22;1003;48.002;7.788;2022-10-16T06:06:09;14.50;99.90
2002;DHT22;1003;48.002;7.788;2022-10-16T06:08:37;14.50;99.90
2002;DHT22;1003;48.002;7.788;2022-10-16T06:11:09;14.50;99.90
2002;DHT22;1003;48.002;7.788;2022-10-16T06:13:38;14.50;99.90
2002;DHT22;1003;48.002;7.788;2022-10-16T06:16:08;14.60;99.90
2002;DHT22;1003;48.002;7.788;2022-10-16T06:18:36;14.60;99.90
2002;DHT22;1003;48.002;7.788;2022-10-16T06:21:07;14.70;99.90
2002;DHT22;1003;48.002;7.788;2022-10-16T06:23:36;14.70;99.90
2002;DHT22;1003;48.002;7.788;2022-10-16T06:26:08;14.70;99.90
2002;DHT22;1003;48.002;7.788;2022-10-16T06:28:37;14.60;99.90
2002;DHT22;1003;48.002;7.788;2022-10-16T06:31:06;14.50;99.90
2002;DHT22;1003;48.002;7.788;2022-10-16T06:33:34;14.50;99.90
2002;DHT22;1003;48.002;7.788;2022-10-16T06:36:02;14.50;99.90
2002;DHT22;1003;48.002;7.788;2022-10-16T06:38:30;14.50;99.90
2002;DHT22;1003;48.002;7.788;2022-10-16T06:40:58;14.40;99.90
2002;DHT22;1003;48.002;7.788;2022-10-16T06:43:28;14.50;99.90
2002;DHT22;1003;48.002;7.788;2022-10-16T06:45:59;14.50;99.90
2002;DHT22;1003;48.002;7.788;2022-10-16T06:48:26;14.50;99.90
2002;DHT22;1003;48.002;7.788;2022-10-16T06:50:56;14.50;99.90
2002;DHT22;1003;48.002;7.788;2022-10-16T06:53:24;14.50;99.90
2002;DHT22;1003;48.002;7.788;2022-10-16T06:55:52;14.50;99.90
2002;DHT22;1003;48.002;7.788;2022-10-16T06:58:19;14.60;99.90
2002;DHT22;1003;48.002;7.788;2022-10-16T07:00:48;14.60;99.90
2002;DHT22;1003;48.002;7.788;2022-10-16T07:03:15;14.70;99.90
2002;DHT22;1003;48.002;7.788;2022-10-16T07:05:43;14.80;99.90
2002;DHT22;1003;48.002;7.788;2022-10-16T07:08:10;14.70;99.90
2002;DHT22;1003;48.002;7.788;2022-10-16T07:10:37;14.90;99.90
2002;DHT22;1003;48.002;7.788;2022-10-16T07:13:04;14.80;99.90
2002;DHT22;1003;48.002;7.788;2022-10-16T07:15:33;14.90;99.90
2002;DHT22;1003;48.002;7.788;2022-10-16T07:18:02;15.00;99.90
2002;DHT22;1003;48.002;7.788;2022-10-16T07:20:29;15.10;99.90
2002;DHT22;1003;48.002;7.788;2022-10-16T07:22:56;15.10;99.90
2002;DHT22;1003;48.002;7.788;2022-10-16T07:25:23;15.10;99.90
2002;DHT22;1003;48.002;7.788;2022-10-16T07:27:50;15.20;99.90
2002;DHT22;1003;48.002;7.788;2022-10-16T07:30:17;15.30;99.90
2002;DHT22;1003;48.002;7.788;2022-10-16T07:32:44;15.40;99.90
2002;DHT22;1003;48.002;7.788;2022-10-16T07:35:13;15.40;99.90
2002;DHT22;1003;48.002;7.788;2022-10-16T07:37:44;15.50;99.90
2002;DHT22;1003;48.002;7.788;2022-10-16T07:40:12;15.50;99.90
2002;DHT22;1003;48.002;7.788;2022-10-16T07:42:39;15.60;99.90
2002;DHT22;1003;48.002;7.788;2022-10-16T07:45:07;15.60;99.90
2002;DHT22;1003;48.002;7.788;2022-10-16T07:47:34;15.70;99.90
2002;DHT22;1003;48.002;7.788;2022-10-16T07:50:01;15.80;99.90
2002;DHT22;1003;48.002;7.788;2022-10-16T07:52:30;16.00;99.90
2002;DHT22;1003;48.002;7.788;2022-10-16T07:54:57;16.10;99.90
2002;DHT22;1003;48.002;7.788;2022-10-16T07:57:24;16.10;99.90
2002;DHT22;1003;48.002;7.788;2022-10-16T07:59:51;16.20;99.90
2002;DHT22;1003;48.002;7.788;2022-10-16T08:02:18;16.40;99.90
2002;DHT22;1003;48.002;7.788;2022-10-16T08:04:46;16.50;99.90
2002;DHT22;1003;48.002;7.788;2022-10-16T08:07:13;16.70;99.90
2002;DHT22;1003;48.002;7.788;2022-10-16T08:09:42;16.90;99.90
2002;DHT22;1003;48.002;7.788;2022-10-16T08:12:09;17.00;99.90
2002;DHT22;1003;48.002;7.788;2022-10-16T08:14:36;17.20;99.90
2002;DHT22;1003;48.002;7.788;2022-10-16T08:17:03;17.30;99.90
2002;DHT22;1003;48.002;7.788;2022-10-16T08:19:30;17.40;99.90
2002;DHT22;1003;48.002;7.788;2022-10-16T08:22:00;17.50;99.90
2002;DHT22;1003;48.002;7.788;2022-10-16T08:24:27;17.60;99.90
2002;DHT22;1003;48.002;7.788;2022-10-16T08:26:57;17.70;99.90
2002;DHT22;1003;48.002;7.788;2022-10-16T08:29:24;17.80;99.90
2002;DHT22;1003;48.002;7.788;2022-10-16T08:31:51;18.00;99.90
2002;DHT22;1003;48.002;7.788;2022-10-16T08:34:18;18.10;99.90
2002;DHT22;1003;48.002;7.788;2022-10-16T08:36:45;18.20;99.90
2002;DHT22;1003;48.002;7.788;2022-10-16T08:39:13;18.40;99.90
2002;DHT22;1003;48.002;7.788;2022-10-16T08:45:32;18.60;99.90
2002;DHT22;1003;48.002;7.788;2022-10-16T08:48:17;18.70;99.90
2002;DHT22;1003;48.002;7.788;2022-10-16T08:50:51;18.70;99.90
2002;DHT22;1003;48.002;7.788;2022-10-16T08:53:22;18.80;99.90
2002;DHT22;1003;48.002;7.788;2022-10-16T08:55:54;18.90;99.90
2002;DHT22;1003;48.002;7.788;2022-10-16T08:58:27;19.10;99.90
2002;DHT22;1003;48.002;7.788;2022-10-16T09:00:57;19.10;99.90
2002;DHT22;1003;48.002;7.788;2022-10-16T09:03:44;19.20;99.90
2002;DHT22;1003;48.002;7.788;2022-10-16T09:06:29;19.30;99.90
2002;DHT22;1003;48.002;7.788;2022-10-16T09:09:38;19.50;99.90
2002;DHT22;1003;48.002;7.788;2022-10-16T09:12:19;19.60;99.90
2002;DHT22;1003;48.002;7.788;2022-10-16T09:14:59;19.90;99.90
2002;DHT22;1003;48.002;7.788;2022-10-16T09:17:40;20.00;99.90
2002;DHT22;1003;48.002;7.788;2022-10-16T09:20:23;20.30;99.90
2002;DHT22;1003;48.002;7.788;2022-10-16T09:23:08;20.40;99.90
2002;DHT22;1003;48.002;7.788;2022-10-16T09:25:43;20.70;99.90
2002;DHT22;1003;48.002;7.788;2022-10-16T09:28:11;20.80;99.90
2002;DHT22;1003;48.002;7.788;2022-10-16T09:30:40;21.10;99.90
2002;DHT22;1003;48.002;7.788;2022-10-16T09:33:09;21.50;99.90
2002;DHT22;1003;48.002;7.788;2022-10-16T09:35:40;21.70;99.90
2002;DHT22;1003;48.002;7.788;2022-10-16T09:38:20;21.70;99.90
2002;DHT22;1003;48.002;7.788;2022-10-16T09:40:49;21.90;99.90
2002;DHT22;1003;48.002;7.788;2022-10-16T09:43:21;22.30;99.90
2002;DHT22;1003;48.002;7.788;2022-10-16T09:46:02;22.70;99.90
2002;DHT22;1003;48.002;7.788;2022-10-16T09:48:36;22.70;99.90
2002;DHT22;1003;48.002;7.788;2022-10-16T09:51:13;23.10;99.90
2002;DHT22;1003;48.002;7.788;2022-10-16T09:53:46;23.40;99.90
2002;DHT22;1003;48.002;7.788;2022-10-16T09:56:22;23.60;99.90
2002;DHT22;1003;48.002;7.788;2022-10-16T09:58:51;23.90;99.90
2002;DHT22;1003;48.002;7.788;2022-10-16T10:01:22;24.10;99.90
2002;DHT22;1003;48.002;7.788;2022-10-16T10:03:56;24.20;99.90
2002;DHT22;1003;48.002;7.788;2022-10-16T10:06:29;24.20;99.90
2002;DHT22;1003;48.002;7.788;2022-10-16T10:09:02;24.20;99.90
2002;DHT22;1003;48.002;7.788;2022-10-16T10:11:50;24.30;99.90
2002;DHT22;1003;48.002;7.788;2022-10-16T10:14:24;24.40;99.90
2002;DHT22;1003;48.002;7.788;2022-10-16T10:17:10;24.60;99.90
2002;DHT22;1003;48.002;7.788;2022-10-16T10:19:42;24.70;99.90
2002;DHT22;1003;48.002;7.788;2022-10-16T10:22:17;24.60;99.90
2002;DHT22;1003;48.002;7.788;2022-10-16T10:24:57;24.50;99.90
2002;DHT22;1003;48.002;7.788;2022-10-16T10:27:41;24.60;99.90
2002;DHT22;1003;48.002;7.788;2022-10-16T10:30:23;24.70;99.90
2002;DHT22;1003;48.002;7.788;2022-10-16T10:33:08;24.60;99.90
2002;DHT22;1003;48.002;7.788;2022-10-16T10:35:46;24.60;99.90
2002;DHT22;1003;48.002;7.788;2022-10-16T10:38:28;24.70;99.90
2002;DHT22;1003;48.002;7.788;2022-10-16T10:41:44;24.70;99.90
2002;DHT22;1003;48.002;7.788;2022-10-16T10:44:56;24.90;99.90
2002;DHT22;1003;48.002;7.788;2022-10-16T10:47:40;25.20;99.90
2002;DHT22;1003;48.002;7.788;2022-10-16T10:50:23;25.20;99.90
2002;DHT22;1003;48.002;7.788;2022-10-16T10:52:59;25.30;99.90
2002;DHT22;1003;48.002;7.788;2022-10-16T10:55:39;25.20;99.90
2002;DHT22;1003;48.002;7.788;2022-10-16T10:58:35;25.20;99.90
2002;DHT22;1003;48.002;7.788;2022-10-16T11:01:14;25.00;99.90
2002;DHT22;1003;48.002;7.788;2022-10-16T11:04:01;25.00;99.90
2002;DHT22;1003;48.002;7.788;2022-10-16T11:06:48;25.10;99.90
2002;DHT22;1003;48.002;7.788;2022-10-16T11:09:21;25.10;99.90
2002;DHT22;1003;48.002;7.788;2022-10-16T11:11:56;25.00;99.90
2002;DHT22;1003;48.002;7.788;2022-10-16T11:14:30;25.10;99.90
2002;DHT22;1003;48.002;7.788;2022-10-16T11:17:08;25.10;99.90
2002;DHT22;1003;48.002;7.788;2022-10-16T11:19:43;25.20;99.90
2002;DHT22;1003;48.002;7.788;2022-10-16T11:22:21;25.20;99.90
2002;DHT22;1003;48.002;7.788;2022-10-16T11:24:54;25.40;99.90
2002;DHT22;1003;48.002;7.788;2022-10-16T11:27:35;25.50;99.90
2002;DHT22;1003;48.002;7.788;2022-10-16T11:30:12;25.80;99.90
2002;DHT22;1003;48.002;7.788;2022-10-16T11:32:52;25.90;99.90
2002;DHT22;1003;48.002;7.788;2022-10-16T11:35:36;26.00;99.90
2002;DHT22;1003;48.002;7.788;2022-10-16T11:38:14;26.00;99.90
2002;DHT22;1003;48.002;7.788;2022-10-16T11:40:52;26.10;99.90
2002;DHT22;1003;48.002;7.788;2022-10-16T11:43:26;26.10;99.90
2002;DHT22;1003;48.002;7.788;2022-10-16T11:46:03;26.20;99.90
2002;DHT22;1003;48.002;7.788;2022-10-16T11:48:42;26.30;99.90
2002;DHT22;1003;48.002;7.788;2022-10-16T11:51:19;26.40;99.90
2002;DHT22;1003;48.002;7.788;2022-10-16T11:54:02;26.40;99.90
2002;DHT22;1003;48.002;7.788;2022-10-16T11:56:38;26.30;99.90
2002;DHT22;1003;48.002;7.788;2022-10-16T11:59:14;26.20;99.90
2002;DHT22;1003;48.002;7.788;2022-10-16T12:01:53;26.10;99.90
2002;DHT22;1003;48.002;7.788;2022-10-16T12:04:27;26.20;99.90
2002;DHT22;1003;48.002;7.788;2022-10-16T12:07:04;26.30;99.90
2002;DHT22;1003;48.002;7.788;2022-10-16T12:09:38;26.10;99.90
2002;DHT22;1003;48.002;7.788;2022-10-16T12:12:24;26.10;99.90
2002;DHT22;1003;48.002;7.788;2022-10-16T12:15:00;26.00;99.90
2002;DHT22;1003;48.002;7.788;2022-10-16T12:17:35;26.00;99.90
2002;DHT22;1003;48.002;7.788;2022-10-16T12:20:25;26.10;99.90
2002;DHT22;1003;48.002;7.788;2022-10-16T12:22:57;26.00;99.90
2002;DHT22;1003;48.002;7.788;2022-10-16T12:25:29;25.90;99.90
2002;DHT22;1003;48.002;7.788;2022-10-16T12:28:03;25.80;99.90
2002;DHT22;1003;48.002;7.788;2022-10-16T12:30:35;26.00;99.90
2002;DHT22;1003;48.002;7.788;2022-10-16T12:33:05;25.90;99.90
2002;DHT22;1003;48.002;7.788;2022-10-16T12:35:46;26.00;99.90
2002;DHT22;1003;48.002;7.788;2022-10-16T12:38:16;25.80;99.90
2002;DHT22;1003;48.002;7.788;2022-10-16T12:40:55;25.80;99.90
2002;DHT22;1003;48.002;7.788;2022-10-16T12:43:34;26.00;99.90
2002;DHT22;1003;48.002;7.788;2022-10-16T12:46:19;25.80;99.90
2002;DHT22;1003;48.002;7.788;2022-10-16T12:48:49;25.80;99.90
2002;DHT22;1003;48.002;7.788;2022-10-16T12:51:24;25.80;99.90
2002;DHT22;1003;48.002;7.788;2022-10-16T12:54:01;25.50;99.90
2002;DHT22;1003;48.002;7.788;2022-10-16T12:56:40;25.40;99.90
2002;DHT22;1003;48.002;7.788;2022-10-16T12:59:24;25.20;99.90
2002;DHT22;1003;48.002;7.788;2022-10-16T13:05:49;24.80;99.90
2002;DHT22;1003;48.002;7.788;2022-10-16T13:08:39;24.80;99.90
2002;DHT22;1003;48.002;7.788;2022-10-16T13:11:23;24.70;99.90
2002;DHT22;1003;48.002;7.788;2022-10-16T13:14:11;24.70;99.90
2002;DHT22;1003;48.002;7.788;2022-10-16T13:17:01;24.60;99.90
2002;DHT22;1003;48.002;7.788;2022-10-16T13:19:42;24.40;99.90
2002;DHT22;1003;48.002;7.788;2022-10-16T13:22:22;24.30;99.90
2002;DHT22;1003;48.002;7.788;2022-10-16T13:25:04;24.10;99.90
2002;DHT22;1003;48.002;7.788;2022-10-16T13:27:50;24.00;99.90
2002;DHT22;1003;48.002;7.788;2022-10-16T13:30:25;23.90;99.90
2002;DHT22;1003;48.002;7.788;2022-10-16T13:32:59;24.10;99.90
2002;DHT22;1003;48.002;7.788;2022-10-16T13:35:30;24.10;99.90
2002;DHT22;1003;48.002;7.788;2022-10-16T13:38:11;24.00;99.90
2002;DHT22;1003;48.002;7.788;2022-10-16T13:40:49;24.00;99.90
2002;DHT22;1003;48.002;7.788;2022-10-16T13:43:24;23.90;99.90
2002;DHT22;1003;48.002;7.788;2022-10-16T13:46:01;23.90;99.90
2002;DHT22;1003;48.002;7.788;2022-10-16T13:48:31;23.80;99.90
2002;DHT22;1003;48.002;7.788;2022-10-16T13:51:03;23.70;99.90
2002;DHT22;1003;48.002;7.788;2022-10-16T13:53:33;23.70;99.90
2002;DHT22;1003;48.002;7.788;2022-10-16T13:56:04;23.80;99.90
2002;DHT22;1003;48.002;7.788;2022-10-16T13:58:32;23.70;99.90
2002;DHT22;1003;48.002;7.788;2022-10-16T14:01:05;23.60;99.90
2002;DHT22;1003;48.002;7.788;2022-10-16T14:03:42;23.70;99.90
2002;DHT22;1003;48.002;7.788;2022-10-16T14:06:13;23.80;99.90
2002;DHT22;1003;48.002;7.788;2022-10-16T14:08:44;23.90;99.90
2002;DHT22;1003;48.002;7.788;2022-10-16T14:11:20;23.90;99.90
2002;DHT22;1003;48.002;7.788;2022-10-16T14:13:50;24.00;99.90
2002;DHT22;1003;48.002;7.788;2022-10-16T14:16:21;23.90;99.90
2002;DHT22;1003;48.002;7.788;2022-10-16T14:18:57;23.90;99.90
2002;DHT22;1003;48.002;7.788;2022-10-16T14:21:28;23.90;99.90
2002;DHT22;1003;48.002;7.788;2022-10-16T14:23:59;23.90;99.90
2002;DHT22;1003;48.002;7.788;2022-10-16T14:26:41;23.90;99.90
2002;DHT22;1003;48.002;7.788;2022-10-16T14:29:12;24.00;99.90
2002;DHT22;1003;48.002;7.788;2022-10-16T14:31:42;24.00;99.90
2002;DHT22;1003;48.002;7.788;2022-10-16T14:34:30;23.90;99.90
2002;DHT22;1003;48.002;7.788;2022-10-16T14:37:00;23.90;99.90
2002;DHT22;1003;48.002;7.788;2022-10-16T14:39:33;23.80;99.90
2002;DHT22;1003;48.002;7.788;2022-10-16T14:42:03;23.90;99.90
2002;DHT22;1003;48.002;7.788;2022-10-16T14:44:32;23.90;99.90
2002;DHT22;1003;48.002;7.788;2022-10-16T14:47:10;23.80;99.90
2002;DHT22;1003;48.002;7.788;2022-10-16T14:49:41;23.80;99.90
2002;DHT22;1003;48.002;7.788;2022-10-16T14:52:10;23.80;99.90
2002;DHT22;1003;48.002;7.788;2022-10-16T14:54:38;23.80;99.90
2002;DHT22;1003;48.002;7.788;2022-10-16T14:57:15;23.80;99.90
2002;DHT22;1003;48.002;7.788;2022-10-16T14:59:45;23.60;99.90
2002;DHT22;1003;48.002;7.788;2022-10-16T15:02:22;23.50;99.90
2002;DHT22;1003;48.002;7.788;2022-10-16T15:04:53;23.30;99.90
2002;DHT22;1003;48.002;7.788;2022-10-16T15:07:21;23.20;99.90
2002;DHT22;1003;48.002;7.788;2022-10-16T15:09:50;23.30;99.90
2002;DHT22;1003;48.002;7.788;2022-10-16T15:12:17;23.20;99.90
2002;DHT22;1003;48.002;7.788;2022-10-16T15:14:44;23.20;99.90
2002;DHT22;1003;48.002;7.788;2022-10-16T15:17:11;23.10;99.90
2002;DHT22;1003;48.002;7.788;2022-10-16T15:19:40;23.00;99.90
2002;DHT22;1003;48.002;7.788;2022-10-16T15:22:09;22.90;99.90
2002;DHT22;1003;48.002;7.788;2022-10-16T15:24:37;22.90;99.90
2002;DHT22;1003;48.002;7.788;2022-10-16T15:27:05;22.90;99.90
2002;DHT22;1003;48.002;7.788;2022-10-16T15:29:32;22.80;99.90
2002;DHT22;1003;48.002;7.788;2022-10-16T15:31:59;22.80;99.90
2002;DHT22;1003;48.002;7.788;2022-10-16T15:34:26;22.70;99.90
2002;DHT22;1003;48.002;7.788;2022-10-16T15:36:54;22.60;99.90
2002;DHT22;1003;48.002;7.788;2022-10-16T15:39:23;22.50;99.90
2002;DHT22;1003;48.002;7.788;2022-10-16T15:41:50;22.30;99.90
2002;DHT22;1003;48.002;7.788;2022-10-16T15:44:19;22.20;99.90
2002;DHT22;1003;48.002;7.788;2022-10-16T15:46:48;22.10;99.90
2002;DHT22;1003;48.002;7.788;2022-10-16T15:49:15;21.90;99.90
2002;DHT22;1003;48.002;7.788;2022-10-16T15:51:42;21.80;99.90
2002;DHT22;1003;48.002;7.788;2022-10-16T15:54:11;21.70;99.90
2002;DHT22;1003;48.002;7.788;2022-10-16T15:56:38;21.50;99.90
2002;DHT22;1003;48.002;7.788;2022-10-16T15:59:05;21.40;99.90
2002;DHT22;1003;48.002;7.788;2022-10-16T16:01:32;21.30;99.90
2002;DHT22;1003;48.002;7.788;2022-10-16T16:03:59;21.10;99.90
2002;DHT22;1003;48.002;7.788;2022-10-16T16:06:27;21.00;99.90
2002;DHT22;1003;48.002;7.788;2022-10-16T16:08:54;20.80;99.90
2002;DHT22;1003;48.002;7.788;2022-10-16T16:11:22;20.70;99.90
2002;DHT22;1003;48.002;7.788;2022-10-16T16:13:49;20.50;99.90
2002;DHT22;1003;48.002;7.788;2022-10-16T16:16:17;20.40;99.90
2002;DHT22;1003;48.002;7.788;2022-10-16T16:18:45;20.20;99.90
2002;DHT22;1003;48.002;7.788;2022-10-16T16:21:15;20.00;99.90
2002;DHT22;1003;48.002;7.788;2022-10-16T16:23:42;19.90;99.90
2002;DHT22;1003;48.002;7.788;2022-10-16T16:26:11;19.80;99.90
2002;DHT22;1003;48.002;7.788;2022-10-16T16:28:42;19.60;99.90
2002;DHT22;1003;48.002;7.788;2022-10-16T16:31:10;19.50;99.90
2002;DHT22;1003;48.002;7.788;2022-10-16T16:33:37;19.30;99.90
2002;DHT22;1003;48.002;7.788;2022-10-16T16:36:05;19.10;99.90
2002;DHT22;1003;48.002;7.788;2022-10-16T16:38:33;19.00;99.90
2002;DHT22;1003;48.002;7.788;2022-10-16T16:41:11;18.90;99.90